Herndon, Virginia
Current Conditions -  °F | °C
As of 7:52 PM on Thursday 27 Nov 2014 (Local Time) from KIAD Reporting Station
Overcast Overcast  
Wind Chill: 28°   Ceiling: 7000
Heat Index: 36°   Visibility: 10mi
Dew Point: 28°   Wind: 13mph
Humidity: 73%   Direction: 290°WNW
Pressure: 30.15"   Gusts: NA
Location:  38.97°N, 77.38°W
Report Text: KIAD 280052Z 29011KT 10SM OVC070 02/M02 A3015 RMK AO2 SLP211 T00221022 $
Loading
Personal Weather Stations






























Interactive Weather Map New forecast layout! Learn more

10-Day Weather Forecast

Advertisements
Track Severe Weather on mobile